createdAt,value
2022-11-01T00:01:09.035Z,11.71
2022-11-01T00:03:35.703Z,11.56
2022-11-01T00:06:02.764Z,11.32
2022-11-01T00:08:29.610Z,10.90
2022-11-01T00:11:05.117Z,11.35
2022-11-01T00:13:32.361Z,11.55
2022-11-01T00:15:59.130Z,11.49
2022-11-01T00:18:26.381Z,11.58
2022-11-01T00:20:53.236Z,11.75
2022-11-01T00:23:20.068Z,11.88
2022-11-01T00:25:46.714Z,11.83
2022-11-01T00:28:13.441Z,11.78
2022-11-01T00:30:40.639Z,11.62
2022-11-01T00:33:07.692Z,11.71
2022-11-01T00:35:38.418Z,11.55
2022-11-01T00:38:06.210Z,11.58
2022-11-01T00:40:33.138Z,11.45
2022-11-01T00:42:59.885Z,10.78
2022-11-01T00:45:26.618Z,10.21
2022-11-01T00:47:53.344Z,10.80
2022-11-01T00:50:20.132Z,10.62
2022-11-01T00:52:47.348Z,10.47
2022-11-01T00:55:14.242Z,10.71
2022-11-01T00:57:40.820Z,10.93
2022-11-01T01:00:07.714Z,10.57
2022-11-01T01:02:34.378Z,10.32
2022-11-01T01:05:01.042Z,10.71
2022-11-01T01:07:27.663Z,10.91
2022-11-01T01:09:54.346Z,10.25
2022-11-01T01:12:21.116Z,9.72
2022-11-01T01:14:47.807Z,9.88
2022-11-01T01:17:15.034Z,10.02
2022-11-01T01:19:44.206Z,9.94
2022-11-01T01:22:10.969Z,9.48
2022-11-01T01:24:37.709Z,9.55
2022-11-01T01:27:04.634Z,9.57
2022-11-01T01:29:31.279Z,8.46
2022-11-01T01:31:58.002Z,8.91
2022-11-01T01:34:24.612Z,9.23
2022-11-01T01:36:51.420Z,9.56
2022-11-01T01:39:18.088Z,9.47
2022-11-01T01:41:56.917Z,9.75
2022-11-01T01:44:51.813Z,9.96
2022-11-01T01:47:42.463Z,9.83
2022-11-01T01:50:11.998Z,9.61
2022-11-01T01:52:44.125Z,8.82
2022-11-01T01:55:13.646Z,9.15
2022-11-01T01:57:41.872Z,9.44
2022-11-01T02:00:10.839Z,9.89
2022-11-01T02:02:38.374Z,10.11
2022-11-01T02:05:17.247Z,10.28
2022-11-01T02:07:45.577Z,10.34
2022-11-01T02:10:14.733Z,10.51
2022-11-01T02:12:45.269Z,10.69
2022-11-01T02:15:13.661Z,10.54
2022-11-01T02:18:02.255Z,9.65
2022-11-01T02:20:39.763Z,9.52
2022-11-01T02:23:12.360Z,9.99
2022-11-01T02:25:58.627Z,9.53
2022-11-01T02:29:05.934Z,10.03
2022-11-01T02:31:52.137Z,9.96
2022-11-01T02:34:21.942Z,10.13
2022-11-01T02:37:11.431Z,10.46
2022-11-01T02:39:45.558Z,10.75
2022-11-01T02:42:30.415Z,10.84
2022-11-01T02:45:11.079Z,10.45
2022-11-01T02:47:40.409Z,9.96
2022-11-01T02:50:10.881Z,10.14
2022-11-01T02:52:40.405Z,10.00
2022-11-01T02:55:30.735Z,10.02
2022-11-01T02:58:25.622Z,10.16
2022-11-01T03:00:52.937Z,9.61
2022-11-01T03:03:26.410Z,8.78
2022-11-01T03:06:04.890Z,8.87
2022-11-01T03:08:43.878Z,9.20
2022-11-01T03:11:15.541Z,9.46
2022-11-01T03:14:02.645Z,9.37
2022-11-01T03:16:47.936Z,9.98
2022-11-01T03:19:37.938Z,9.99
2022-11-01T03:22:13.564Z,9.89
2022-11-01T03:25:05.599Z,9.97
2022-11-01T03:27:44.937Z,9.87
2022-11-01T03:30:14.255Z,10.18
2022-11-01T03:32:48.234Z,9.97
2022-11-01T03:35:30.778Z,9.98
2022-11-01T03:38:04.846Z,9.71
2022-11-01T03:40:34.358Z,9.97
2022-11-01T03:43:06.793Z,10.26
2022-11-01T03:45:37.768Z,10.31
2022-11-01T03:48:05.952Z,10.12
2022-11-01T03:50:33.938Z,10.69
2022-11-01T03:53:00.923Z,10.15
2022-11-01T03:55:27.695Z,9.92
2022-11-01T03:57:55.748Z,10.04
2022-11-01T04:00:31.345Z,9.91
2022-11-01T04:02:59.164Z,9.88
2022-11-01T04:05:28.384Z,10.14
2022-11-01T04:07:55.979Z,10.15
2022-11-01T04:10:24.079Z,10.25
2022-11-01T04:12:51.778Z,10.79
2022-11-01T04:15:39.999Z,10.48
2022-11-01T04:18:34.799Z,10.50
2022-11-01T04:21:05.840Z,10.68
2022-11-01T04:23:33.797Z,10.51
2022-11-01T04:26:01.307Z,10.55
2022-11-01T04:28:28.126Z,10.08
2022-11-01T04:30:54.911Z,10.35
2022-11-01T04:33:21.525Z,10.55
2022-11-01T04:35:48.052Z,10.52
2022-11-01T04:38:15.243Z,10.43
2022-11-01T04:40:43.128Z,10.32
2022-11-01T04:43:11.549Z,10.72
2022-11-01T04:45:38.326Z,10.49
2022-11-01T04:48:09.257Z,10.30
2022-11-01T04:50:36.197Z,10.43
2022-11-01T04:53:03.248Z,10.74
2022-11-01T04:55:30.156Z,10.82
2022-11-01T04:57:57.520Z,10.78
2022-11-01T05:00:25.066Z,10.64
2022-11-01T05:02:51.877Z,10.71
2022-11-01T05:05:19.063Z,10.79
2022-11-01T05:07:45.803Z,10.78
2022-11-01T05:10:13.320Z,10.72
2022-11-01T05:12:40.090Z,10.34
2022-11-01T05:15:07.516Z,9.99
2022-11-01T05:17:34.153Z,10.25
2022-11-01T05:20:00.680Z,10.54
2022-11-01T05:22:27.424Z,10.74
2022-11-01T05:24:54.165Z,10.85
2022-11-01T05:27:20.802Z,11.16
2022-11-01T05:29:47.488Z,10.83
2022-11-01T05:32:14.175Z,10.96
2022-11-01T05:34:40.780Z,11.27
2022-11-01T05:37:07.368Z,11.06
2022-11-01T05:39:34.063Z,10.53
2022-11-01T05:42:02.944Z,10.40
2022-11-01T05:44:29.838Z,10.95
2022-11-01T05:46:56.503Z,11.23
2022-11-01T05:49:24.636Z,11.11
2022-11-01T05:51:51.503Z,10.85
2022-11-01T05:54:18.228Z,11.12
2022-11-01T05:56:44.999Z,10.45
2022-11-01T05:59:12.121Z,10.07
2022-11-01T06:01:38.934Z,10.67
2022-11-01T06:04:05.884Z,10.65
2022-11-01T06:06:33.060Z,10.48
2022-11-01T06:09:00.791Z,10.46
2022-11-01T06:11:28.008Z,10.49
2022-11-01T06:13:57.565Z,10.15
2022-11-01T06:16:26.342Z,10.24
2022-11-01T06:18:54.553Z,10.32
2022-11-01T06:21:27.591Z,10.63
2022-11-01T06:24:00.492Z,10.69
2022-11-01T06:26:27.628Z,10.89
2022-11-01T06:28:54.397Z,10.45
2022-11-01T06:31:22.119Z,10.93
2022-11-01T06:33:50.435Z,10.72
2022-11-01T06:36:17.174Z,10.53
2022-11-01T06:38:43.847Z,10.31
2022-11-01T06:41:10.444Z,10.62
2022-11-01T06:43:37.102Z,10.47
2022-11-01T06:46:03.837Z,10.83
2022-11-01T06:48:30.653Z,11.22
2022-11-01T06:50:57.411Z,11.18
2022-11-01T06:53:24.880Z,10.97
2022-11-01T06:55:52.359Z,11.10
2022-11-01T06:58:19.096Z,11.25
2022-11-01T07:00:45.809Z,10.93
2022-11-01T07:03:14.398Z,10.71
2022-11-01T07:05:41.762Z,10.69
2022-11-01T07:08:11.203Z,10.82
2022-11-01T07:10:40.277Z,10.37
2022-11-01T07:13:09.498Z,9.83
2022-11-01T07:15:36.517Z,10.10
2022-11-01T07:18:05.952Z,9.94
2022-11-01T07:20:41.514Z,10.14
2022-11-01T07:23:15.579Z,10.16
2022-11-01T07:25:42.903Z,10.22
2022-11-01T07:28:10.403Z,10.27
2022-11-01T07:30:37.190Z,9.73
2022-11-01T07:33:05.208Z,9.65
2022-11-01T07:35:32.108Z,9.71
2022-11-01T07:38:02.695Z,9.79
2022-11-01T07:40:31.877Z,9.67
2022-11-01T07:43:00.055Z,9.88
2022-11-01T07:45:28.985Z,10.26
2022-11-01T07:48:03.525Z,9.90
2022-11-01T07:50:32.199Z,10.31
2022-11-01T07:53:10.150Z,10.23
2022-11-01T07:55:37.581Z,10.06
2022-11-01T07:58:06.276Z,9.81
2022-11-01T08:03:08.826Z,10.64
2022-11-01T08:05:36.116Z,10.59
2022-11-01T08:08:03.120Z,10.47
2022-11-01T08:10:30.864Z,10.43
2022-11-01T08:13:07.936Z,10.67
2022-11-01T08:15:35.627Z,10.55
2022-11-01T08:18:02.864Z,10.64
2022-11-01T08:20:30.114Z,10.64
2022-11-01T08:22:57.407Z,10.61
2022-11-01T08:25:24.367Z,10.24
2022-11-01T08:27:51.633Z,10.38
2022-11-01T08:30:19.876Z,10.52
2022-11-01T08:32:46.872Z,10.57
2022-11-01T08:35:13.835Z,10.68
2022-11-01T08:37:50.919Z,10.75
2022-11-01T08:40:18.196Z,10.18
2022-11-01T08:42:45.455Z,10.58
2022-11-01T08:45:13.084Z,10.61
2022-11-01T08:47:41.110Z,10.69
2022-11-01T08:50:11.336Z,10.49
2022-11-01T08:52:38.839Z,10.56
2022-11-01T08:55:06.040Z,10.12
2022-11-01T08:57:32.692Z,10.34
2022-11-01T08:59:59.688Z,10.32
2022-11-01T09:02:26.857Z,10.17
2022-11-01T09:04:53.624Z,10.55
2022-11-01T09:07:20.190Z,10.27
2022-11-01T09:09:46.826Z,10.39
2022-11-01T09:12:14.811Z,10.68
2022-11-01T09:14:41.915Z,10.51
2022-11-01T09:17:09.070Z,10.81
2022-11-01T09:19:35.629Z,10.94
2022-11-01T09:22:02.228Z,10.42
2022-11-01T09:24:28.807Z,10.20
2022-11-01T09:26:55.347Z,10.58
2022-11-01T09:29:22.138Z,10.70
2022-11-01T09:31:52.993Z,10.68
2022-11-01T09:34:20.836Z,10.40
2022-11-01T09:36:49.206Z,10.60
2022-11-01T09:39:17.898Z,10.69
2022-11-01T09:41:49.985Z,10.99
2022-11-01T09:44:29.028Z,11.46
2022-11-01T09:47:02.409Z,11.36
2022-11-01T09:49:33.761Z,11.55
2022-11-01T09:52:00.817Z,11.22
2022-11-01T09:54:28.977Z,11.67
2022-11-01T09:57:13.980Z,11.47
2022-11-01T10:00:04.130Z,11.56
2022-11-01T10:03:08.814Z,11.85
2022-11-01T10:05:46.225Z,11.64
2022-11-01T10:08:37.876Z,12.01
2022-11-01T10:11:28.332Z,11.47
2022-11-01T10:13:54.970Z,12.36
2022-11-01T10:16:33.129Z,12.40
2022-11-01T10:19:15.007Z,11.79
2022-11-01T10:21:50.253Z,11.92
2022-11-01T10:24:22.889Z,12.58
2022-11-01T10:26:56.850Z,12.35
2022-11-01T10:29:29.213Z,12.95
2022-11-01T10:31:57.279Z,12.51
2022-11-01T10:34:35.952Z,12.91
2022-11-01T10:37:16.624Z,12.89
2022-11-01T10:39:55.664Z,12.88
2022-11-01T10:42:28.525Z,13.44
2022-11-01T10:45:00.659Z,12.75
2022-11-01T10:47:28.265Z,12.98
2022-11-01T10:50:06.626Z,12.91
2022-11-01T10:52:50.271Z,13.23
2022-11-01T10:55:40.154Z,13.51
2022-11-01T10:58:19.429Z,13.55
2022-11-01T11:00:46.771Z,13.41
2022-11-01T11:03:23.905Z,12.59
2022-11-01T11:05:52.281Z,12.82
2022-11-01T11:08:23.592Z,13.33
2022-11-01T11:10:50.874Z,13.18
2022-11-01T11:13:22.122Z,13.12
2022-11-01T11:15:52.734Z,13.24
2022-11-01T11:18:32.152Z,13.64
2022-11-01T11:21:02.160Z,13.31
2022-11-01T11:23:33.336Z,12.95
2022-11-01T11:26:03.328Z,13.56
2022-11-01T11:28:32.953Z,13.58
2022-11-01T11:31:31.597Z,13.63
2022-11-01T11:34:04.214Z,13.36
2022-11-01T11:36:42.356Z,14.49
2022-11-01T11:39:23.466Z,14.66
2022-11-01T11:41:50.328Z,14.11
2022-11-01T11:44:41.180Z,13.91
2022-11-01T11:47:38.605Z,14.71
2022-11-01T11:50:26.367Z,15.18
2022-11-01T11:53:11.066Z,14.76
2022-11-01T11:55:48.100Z,15.04
2022-11-01T11:58:27.078Z,15.29
2022-11-01T12:01:15.709Z,15.36
2022-11-01T12:04:13.350Z,14.84
2022-11-01T12:06:44.979Z,14.91
2022-11-01T12:09:33.425Z,15.37
2022-11-01T12:12:29.710Z,14.89
2022-11-01T12:14:57.453Z,14.96
2022-11-01T12:17:45.373Z,15.11
2022-11-01T12:20:22.212Z,15.59
2022-11-01T12:23:41.491Z,15.73
2022-11-01T12:26:16.625Z,15.73
2022-11-01T12:28:55.907Z,15.75
2022-11-01T12:31:23.958Z,15.99
2022-11-01T12:33:58.293Z,16.31
2022-11-01T12:36:31.013Z,16.28
2022-11-01T12:39:06.850Z,15.57
2022-11-01T12:41:52.538Z,15.26
2022-11-01T12:44:36.380Z,15.73
2022-11-01T12:47:27.782Z,16.47
2022-11-01T12:50:07.126Z,17.01
2022-11-01T12:52:56.822Z,17.14
2022-11-01T12:55:33.614Z,16.15
2022-11-01T12:58:06.556Z,16.53
2022-11-01T13:00:41.485Z,16.54
2022-11-01T13:03:08.213Z,16.81
2022-11-01T13:05:44.223Z,16.22
2022-11-01T13:08:27.891Z,16.74
2022-11-01T13:10:58.310Z,16.84
2022-11-01T13:13:24.963Z,17.30
2022-11-01T13:16:02.253Z,17.34
2022-11-01T13:18:50.242Z,17.25
2022-11-01T13:21:44.379Z,17.25
2022-11-01T13:24:19.909Z,17.47
2022-11-01T13:27:09.840Z,17.48
2022-11-01T13:30:03.367Z,17.58
2022-11-01T13:32:36.273Z,17.23
2022-11-01T13:35:12.543Z,17.41
2022-11-01T13:37:51.037Z,17.31
2022-11-01T13:40:37.349Z,17.11
2022-11-01T13:43:10.461Z,17.26
2022-11-01T13:45:55.888Z,17.32
2022-11-01T13:48:43.984Z,16.94
2022-11-01T13:51:27.501Z,17.18
2022-11-01T13:53:59.541Z,17.20
2022-11-01T13:56:41.714Z,17.37
2022-11-01T13:59:29.865Z,17.22
2022-11-01T14:02:17.593Z,17.11
2022-11-01T14:04:58.728Z,17.00
2022-11-01T14:07:32.503Z,16.89
2022-11-01T14:09:59.338Z,16.89
2022-11-01T14:12:34.793Z,16.75
2022-11-01T14:15:16.548Z,16.86
2022-11-01T14:18:03.196Z,17.01
2022-11-01T14:20:31.150Z,17.09
2022-11-01T14:22:59.210Z,17.15
2022-11-01T14:25:31.610Z,17.15
2022-11-01T14:28:16.581Z,17.32
2022-11-01T14:30:49.643Z,17.35
2022-11-01T14:33:19.615Z,17.44
2022-11-01T14:35:55.569Z,17.43
2022-11-01T14:38:31.938Z,17.15
2022-11-01T14:41:00.244Z,17.15
2022-11-01T14:43:42.902Z,17.15
2022-11-01T14:46:18.377Z,16.91
2022-11-01T14:48:50.409Z,16.73
2022-11-01T14:51:28.561Z,16.71
2022-11-01T14:54:29.225Z,16.68
2022-11-01T14:56:57.551Z,16.56
2022-11-01T14:59:26.795Z,16.52
2022-11-01T15:02:02.053Z,16.55
2022-11-01T15:04:32.310Z,16.56
2022-11-01T15:07:00.270Z,16.59
2022-11-01T15:09:29.705Z,16.55
2022-11-01T15:12:09.323Z,16.40
2022-11-01T15:14:40.682Z,16.62
2022-11-01T15:17:20.280Z,16.52
2022-11-01T15:19:48.416Z,16.32
2022-11-01T15:22:17.718Z,16.30
2022-11-01T15:24:47.822Z,16.28
2022-11-01T15:27:18.163Z,16.09
2022-11-01T15:29:44.960Z,16.13
2022-11-01T15:32:25.004Z,16.00
2022-11-01T15:34:53.768Z,15.99
2022-11-01T15:37:23.256Z,16.03
2022-11-01T15:39:50.486Z,16.13
2022-11-01T15:42:23.875Z,16.00
2022-11-01T15:44:50.696Z,15.99
2022-11-01T15:47:22.349Z,15.92
2022-11-01T15:49:57.883Z,16.07
2022-11-01T15:52:30.423Z,15.97
2022-11-01T15:55:00.179Z,15.94
2022-11-01T15:57:29.539Z,15.91
2022-11-01T16:00:08.013Z,15.92
2022-11-01T16:02:54.303Z,16.00
2022-11-01T16:05:28.651Z,16.00
2022-11-01T16:07:58.149Z,15.91
2022-11-01T16:10:27.509Z,15.78
2022-11-01T16:12:55.117Z,15.59
2022-11-01T16:15:31.105Z,15.21
2022-11-01T16:18:00.200Z,15.33
2022-11-01T16:20:43.275Z,15.45
2022-11-01T16:23:14.782Z,15.38
2022-11-01T16:25:41.450Z,15.34
2022-11-01T16:28:11.215Z,15.30
2022-11-01T16:30:46.398Z,15.33
2022-11-01T16:33:22.330Z,15.33
2022-11-01T16:35:58.789Z,15.37
2022-11-01T16:38:38.535Z,15.48
2022-11-01T16:41:17.650Z,15.52
2022-11-01T16:44:12.849Z,15.38
2022-11-01T16:46:39.693Z,15.28
2022-11-01T16:49:15.871Z,15.25
2022-11-01T16:51:42.799Z,15.39
2022-11-01T16:54:10.446Z,15.36
2022-11-01T16:56:49.904Z,15.18
2022-11-01T16:59:40.591Z,15.17
2022-11-01T17:02:23.210Z,14.86
2022-11-01T17:04:54.075Z,14.98
2022-11-01T17:07:20.700Z,14.85
2022-11-01T17:09:47.493Z,14.72
2022-11-01T17:12:14.292Z,14.63
2022-11-01T17:17:18.116Z,14.76
2022-11-01T17:19:49.765Z,14.63
2022-11-01T17:22:21.722Z,14.73
2022-11-01T17:24:49.902Z,14.64
2022-11-01T17:27:18.803Z,14.57
2022-11-01T17:29:45.466Z,14.51
2022-11-01T17:32:12.576Z,14.47
2022-11-01T17:34:39.382Z,14.50
2022-11-01T17:37:06.665Z,14.84
2022-11-01T17:39:33.517Z,14.85
2022-11-01T17:42:00.394Z,14.86
2022-11-01T17:44:27.056Z,15.00
2022-11-01T17:46:53.739Z,15.09
2022-11-01T17:49:21.671Z,15.05
2022-11-01T17:51:54.179Z,15.05
2022-11-01T17:54:22.467Z,14.85
2022-11-01T17:56:50.158Z,14.91
2022-11-01T17:59:17.316Z,14.81
2022-11-01T18:01:47.374Z,14.78
2022-11-01T18:04:14.641Z,14.70
2022-11-01T18:06:43.832Z,14.55
2022-11-01T18:09:25.414Z,14.51
2022-11-01T18:12:21.905Z,14.50
2022-11-01T18:14:48.561Z,14.48
2022-11-01T18:17:24.350Z,14.42
2022-11-01T18:20:06.044Z,14.25
2022-11-01T18:22:47.860Z,14.17
2022-11-01T18:25:32.575Z,14.11
2022-11-01T18:28:01.679Z,13.89
2022-11-01T18:30:30.040Z,13.62
2022-11-01T18:33:07.131Z,13.57
2022-11-01T18:35:40.339Z,13.47
2022-11-01T18:38:29.457Z,13.42
2022-11-01T18:41:00.356Z,13.11
2022-11-01T18:43:31.958Z,13.17
2022-11-01T18:48:46.304Z,13.26
2022-11-01T18:51:24.031Z,13.37
2022-11-01T18:54:09.194Z,13.34
2022-11-01T18:56:40.291Z,13.53
2022-11-01T18:59:15.639Z,13.71
2022-11-01T19:01:42.648Z,13.81
2022-11-01T19:04:12.430Z,13.53
2022-11-01T19:06:39.124Z,13.51
2022-11-01T19:09:24.109Z,13.35
2022-11-01T19:12:15.983Z,13.31
2022-11-01T19:14:45.071Z,13.02
2022-11-01T19:17:23.529Z,12.91
2022-11-01T19:19:51.650Z,12.68
2022-11-01T19:22:38.762Z,12.63
2022-11-01T19:25:24.365Z,12.64
2022-11-01T19:27:55.216Z,12.67
2022-11-01T19:30:28.574Z,12.43
2022-11-01T19:33:06.834Z,12.94
2022-11-01T19:35:33.442Z,12.91
2022-11-01T19:38:00.916Z,13.16
2022-11-01T19:40:31.782Z,13.11
2022-11-01T19:43:09.745Z,13.28
2022-11-01T19:45:45.465Z,13.20
2022-11-01T19:48:15.479Z,13.60
2022-11-01T19:50:44.582Z,13.60
2022-11-01T19:53:31.290Z,13.34
2022-11-01T19:56:04.209Z,13.60
2022-11-01T19:58:40.934Z,13.86
2022-11-01T20:01:09.623Z,13.87
2022-11-01T20:03:53.267Z,13.88
2022-11-01T20:06:34.099Z,13.80
2022-11-01T20:09:12.180Z,13.73
2022-11-01T20:11:38.933Z,13.56
2022-11-01T20:14:06.187Z,13.50
2022-11-01T20:16:33.720Z,13.48
2022-11-01T20:19:00.353Z,13.36
2022-11-01T20:21:27.165Z,13.23
2022-11-01T20:23:54.377Z,12.55
2022-11-01T20:26:21.186Z,12.69
2022-11-01T20:28:49.125Z,12.59
2022-11-01T20:31:15.959Z,12.54
2022-11-01T20:33:42.778Z,12.54
2022-11-01T20:36:11.562Z,12.45
2022-11-01T20:38:39.097Z,12.44
2022-11-01T20:41:06.427Z,12.57
2022-11-01T20:43:33.484Z,12.66
2022-11-01T20:46:00.238Z,12.57
2022-11-01T20:48:26.931Z,12.53
2022-11-01T20:50:54.163Z,12.37
2022-11-01T20:53:21.539Z,12.44
2022-11-01T20:55:50.788Z,12.27
2022-11-01T20:58:17.938Z,12.23
2022-11-01T21:00:45.898Z,11.89
2022-11-01T21:03:16.578Z,11.87
2022-11-01T21:05:45.618Z,11.89
2022-11-01T21:08:22.388Z,11.80
2022-11-01T21:10:54.624Z,11.94
2022-11-01T21:13:47.541Z,11.85
2022-11-01T21:16:22.231Z,11.74
2022-11-01T21:18:52.347Z,11.58
2022-11-01T21:21:32.483Z,11.28
2022-11-01T21:24:00.945Z,11.38
2022-11-01T21:26:31.975Z,11.24
2022-11-01T21:29:03.586Z,11.25
2022-11-01T21:31:32.442Z,11.27
2022-11-01T21:34:10.090Z,11.41
2022-11-01T21:36:39.903Z,10.96
2022-11-01T21:39:15.544Z,11.17
2022-11-01T21:41:45.325Z,10.99
2022-11-01T21:44:18.496Z,10.83
2022-11-01T21:46:47.887Z,10.89
2022-11-01T21:49:30.284Z,11.00
2022-11-01T21:52:00.571Z,11.08
2022-11-01T21:54:30.097Z,11.10
2022-11-01T21:56:57.669Z,11.04
2022-11-01T21:59:25.370Z,11.10
2022-11-01T22:01:52.211Z,11.01
2022-11-01T22:04:22.196Z,11.05
2022-11-01T22:06:51.482Z,10.99
2022-11-01T22:09:18.430Z,10.96
2022-11-01T22:11:45.530Z,11.05
2022-11-01T22:14:12.718Z,10.96
2022-11-01T22:16:39.976Z,10.89
2022-11-01T22:19:07.064Z,10.92
2022-11-01T22:21:33.809Z,11.07
2022-11-01T22:24:00.721Z,11.05
2022-11-01T22:26:28.834Z,11.07
2022-11-01T22:28:55.655Z,11.15
2022-11-01T22:31:23.189Z,11.23
2022-11-01T22:33:54.266Z,11.36
2022-11-01T22:36:28.976Z,11.26
2022-11-01T22:38:57.459Z,11.23
2022-11-01T22:41:32.846Z,11.27
2022-11-01T22:44:05.275Z,11.25
2022-11-01T22:46:45.277Z,11.10
2022-11-01T22:49:16.046Z,11.27
2022-11-01T22:51:56.474Z,11.19
2022-11-01T22:54:42.825Z,11.26
2022-11-01T22:57:09.442Z,11.49
2022-11-01T22:59:57.617Z,11.50
2022-11-01T23:02:27.257Z,11.59
2022-11-01T23:05:16.806Z,11.67
2022-11-01T23:07:48.400Z,11.61
2022-11-01T23:10:30.716Z,11.43
2022-11-01T23:13:31.750Z,11.49
2022-11-01T23:16:11.192Z,11.69
2022-11-01T23:18:40.356Z,11.60
2022-11-01T23:21:08.719Z,11.62
2022-11-01T23:23:40.395Z,11.43
2022-11-01T23:26:07.333Z,11.18
2022-11-01T23:28:35.509Z,11.28
2022-11-01T23:31:04.809Z,11.19
2022-11-01T23:33:43.250Z,11.43
2022-11-01T23:36:19.624Z,11.38
2022-11-01T23:38:55.188Z,11.27
2022-11-01T23:41:37.885Z,11.38
2022-11-01T23:44:13.116Z,12.23
2022-11-01T23:46:40.025Z,12.29
2022-11-01T23:49:19.711Z,11.95
2022-11-01T23:51:46.696Z,11.64
2022-11-01T23:54:21.358Z,11.40
2022-11-01T23:56:48.139Z,11.61
2022-11-01T23:59:15.831Z,11.32
